Time;durP1;ratioP1;P1;durP2;ratioP2;P2;SDS_P1;SDS_P2;PMS_P1;PMS_P2;Temp;Humidity;BMP_temperature;BMP_pressure;BME280_temperature;BME280_humidity;BME280_pressure;Samples;Min_cycle;Max_cycle;Signal;HPM_P1;HPM_P2
2021/06/03 00:00:39;;;;;;;3.95;2.25;;;19.50;99.90;;;;;;5003190;28;20542;-73
2021/06/03 00:03:06;;;;;;;5.45;2.50;;;19.40;99.90;;;;;;5001590;28;20037;-72
2021/06/03 00:05:48;;;;;;;3.80;2.58;;;19.40;99.90;;;;;;5014326;28;20057;-73
2021/06/03 00:08:15;;;;;;;3.22;2.00;;;19.40;99.90;;;;;;5021480;28;20038;-72
2021/06/03 00:10:53;;;;;;;5.00;2.38;;;19.30;99.90;;;;;;5022564;28;20022;-73
2021/06/03 00:13:21;;;;;;;6.80;2.78;;;19.40;99.90;;;;;;5022946;28;20030;-73
2021/06/03 00:15:48;;;;;;;3.65;2.72;;;19.30;99.90;;;;;;5020978;28;20053;-73
2021/06/03 00:18:13;;;;;;;2.33;1.80;;;19.30;99.90;;;;;;5022603;28;20094;-73
2021/06/03 00:20:39;;;;;;;4.75;2.28;;;19.30;99.90;;;;;;5022984;28;20026;-74
2021/06/03 00:23:05;;;;;;;4.53;2.00;;;19.20;99.90;;;;;;5022685;28;20229;-72
2021/06/03 00:25:32;;;;;;;5.22;3.08;;;19.20;99.90;;;;;;5022602;28;20029;-72
2021/06/03 00:27:58;;;;;;;5.07;2.47;;;19.10;99.90;;;;;;5022287;28;20038;-73
2021/06/03 00:30:24;;;;;;;4.35;1.90;;;19.10;99.90;;;;;;5022527;28;20053;-72
2021/06/03 00:32:50;;;;;;;3.53;2.15;;;19.10;99.90;;;;;;5022365;28;20025;-72
2021/06/03 00:35:17;;;;;;;5.57;2.70;;;19.10;99.90;;;;;;5022805;28;20029;-73
2021/06/03 00:37:43;;;;;;;5.57;2.20;;;19.00;99.90;;;;;;5021229;28;20059;-72
2021/06/03 00:40:12;;;;;;;8.50;3.17;;;19.10;99.90;;;;;;5021070;28;20514;-73
2021/06/03 00:42:39;;;;;;;3.22;2.20;;;19.00;99.90;;;;;;5024016;28;20029;-72
2021/06/03 00:45:08;;;;;;;3.35;2.03;;;19.00;99.90;;;;;;5025898;28;20040;-73
2021/06/03 00:47:34;;;;;;;12.38;2.50;;;19.00;99.90;;;;;;5026144;28;20086;-72
2021/06/03 00:50:00;;;;;;;5.10;2.80;;;19.00;99.90;;;;;;5026292;28;20034;-70
2021/06/03 00:52:25;;;;;;;4.60;2.33;;;19.00;99.90;;;;;;5025962;28;20101;-73
2021/06/03 00:54:51;;;;;;;5.03;2.60;;;18.90;99.90;;;;;;5025810;28;20029;-72
2021/06/03 00:57:17;;;;;;;3.40;2.20;;;19.00;99.90;;;;;;5026396;28;20034;-74
2021/06/03 00:59:43;;;;;;;9.63;3.17;;;19.00;99.90;;;;;;5025906;28;20044;-74
2021/06/03 01:02:09;;;;;;;8.70;3.13;;;18.90;99.90;;;;;;5026403;28;20091;-72
2021/06/03 01:04:35;;;;;;;4.53;2.53;;;18.90;99.90;;;;;;5025667;28;20038;-71
2021/06/03 01:07:01;;;;;;;3.60;2.40;;;18.90;99.90;;;;;;5025502;28;20065;-72
2021/06/03 01:09:55;;;;;;;3.97;2.38;;;18.80;99.90;;;;;;5025733;28;20139;-71
2021/06/03 01:12:27;;;;;;;4.97;2.90;;;18.80;99.90;;;;;;5024158;28;20032;-71
2021/06/03 01:14:57;;;;;;;4.22;2.53;;;18.80;99.90;;;;;;5025623;28;20106;-71
2021/06/03 01:17:23;;;;;;;8.25;2.13;;;18.70;99.90;;;;;;5023838;28;20026;-72
2021/06/03 01:19:51;;;;;;;4.20;2.35;;;18.70;99.90;;;;;;5025302;28;20030;-73
2021/06/03 01:22:23;;;;;;;4.18;2.83;;;18.70;99.90;;;;;;5025275;28;20026;-73
2021/06/03 01:24:57;;;;;;;3.40;1.98;;;18.60;99.90;;;;;;5025313;28;20033;-72
2021/06/03 01:27:29;;;;;;;6.35;2.47;;;18.60;99.90;;;;;;5025165;28;20032;-74
2021/06/03 01:29:59;;;;;;;5.28;2.35;;;18.60;99.90;;;;;;5023662;28;20108;-72
2021/06/03 01:32:27;;;;;;;6.15;2.97;;;18.60;99.90;;;;;;5025274;28;20079;-72
2021/06/03 01:34:53;;;;;;;3.63;2.63;;;18.50;99.90;;;;;;5023612;28;20026;-73
2021/06/03 01:37:20;;;;;;;3.90;2.58;;;18.50;99.90;;;;;;5025396;28;20034;-74
2021/06/03 01:39:47;;;;;;;5.13;2.58;;;18.40;99.90;;;;;;5024613;28;20060;-72
2021/06/03 01:42:16;;;;;;;4.97;2.55;;;18.40;99.90;;;;;;5025239;28;20022;-71
2021/06/03 01:44:42;;;;;;;6.35;2.70;;;18.40;99.90;;;;;;5024570;28;20033;-73
2021/06/03 01:47:09;;;;;;;10.20;3.00;;;18.40;99.90;;;;;;5024939;28;20045;-72
2021/06/03 01:49:35;;;;;;;5.43;2.45;;;18.30;99.90;;;;;;5025142;28;20045;-74
2021/06/03 01:52:03;;;;;;;3.55;2.83;;;18.30;99.90;;;;;;5023390;28;20113;-73
2021/06/03 01:54:29;;;;;;;6.85;3.13;;;18.30;99.90;;;;;;5024255;28;20037;-73
2021/06/03 01:56:55;;;;;;;10.73;3.30;;;18.30;99.90;;;;;;5025069;28;20037;-73
2021/06/03 01:59:22;;;;;;;4.28;2.58;;;18.30;99.90;;;;;;5025270;28;20029;-73
2021/06/03 02:01:49;;;;;;;4.07;2.60;;;18.20;99.90;;;;;;5024227;28;20109;-73
2021/06/03 02:04:15;;;;;;;6.40;3.08;;;18.20;99.90;;;;;;5025033;28;20026;-71
2021/06/03 02:06:41;;;;;;;4.90;2.33;;;18.20;99.90;;;;;;5024671;28;20033;-73
2021/06/03 02:09:08;;;;;;;5.43;3.00;;;18.20;99.90;;;;;;5024481;28;20041;-72
2021/06/03 02:11:42;;;;;;;5.47;3.03;;;18.20;99.90;;;;;;5024439;28;20474;-73
2021/06/03 02:14:10;;;;;;;8.15;2.40;;;18.10;99.90;;;;;;5022954;28;20029;-71
2021/06/03 02:16:44;;;;;;;6.35;2.78;;;18.10;99.90;;;;;;5023112;28;20038;-72
2021/06/03 02:19:31;;;;;;;6.70;3.33;;;18.00;99.90;;;;;;5023503;28;20034;-73
2021/06/03 02:21:58;;;;;;;4.43;2.95;;;18.10;99.90;;;;;;5023741;28;20318;-73
2021/06/03 02:24:26;;;;;;;9.85;2.88;;;18.00;99.90;;;;;;5022357;28;20032;-70
2021/06/03 02:26:52;;;;;;;5.03;2.67;;;18.00;99.90;;;;;;5024556;28;20026;-73
2021/06/03 02:29:18;;;;;;;4.85;2.90;;;18.00;99.90;;;;;;5024060;28;20044;-72
2021/06/03 02:31:46;;;;;;;5.53;3.40;;;17.80;99.90;;;;;;5024128;28;20068;-71
2021/06/03 02:34:12;;;;;;;3.97;2.88;;;17.80;99.90;;;;;;5022995;28;20030;-71
2021/06/03 02:36:38;;;;;;;3.65;2.65;;;17.90;99.90;;;;;;5023766;28;20040;-73
2021/06/03 02:39:07;;;;;;;7.25;2.83;;;17.90;99.90;;;;;;5022212;28;20046;-71
2021/06/03 02:41:34;;;;;;;5.90;2.92;;;17.80;99.90;;;;;;5024037;28;20028;-72
2021/06/03 02:44:00;;;;;;;4.78;2.92;;;17.80;99.90;;;;;;5023901;28;20113;-73
2021/06/03 02:46:25;;;;;;;5.47;3.33;;;17.80;99.90;;;;;;5023338;28;20033;-72
2021/06/03 02:48:51;;;;;;;4.93;2.75;;;17.80;99.90;;;;;;5024004;28;20038;-72
2021/06/03 02:51:18;;;;;;;4.68;2.47;;;17.80;99.90;;;;;;5023352;28;20022;-73
2021/06/03 02:53:44;;;;;;;4.80;2.97;;;17.80;99.90;;;;;;5024301;28;20029;-73
2021/06/03 02:56:10;;;;;;;7.72;2.58;;;17.70;99.90;;;;;;5024020;28;20072;-72
2021/06/03 02:58:36;;;;;;;5.95;2.80;;;17.80;99.90;;;;;;5023385;28;20058;-72
2021/06/03 03:01:03;;;;;;;6.25;3.28;;;17.70;99.90;;;;;;5023367;28;20025;-73
2021/06/03 03:03:28;;;;;;;3.65;2.53;;;17.70;99.90;;;;;;5023507;28;20030;-74
2021/06/03 03:05:54;;;;;;;4.78;2.85;;;17.60;99.90;;;;;;5022938;28;20109;-72
2021/06/03 03:08:19;;;;;;;4.43;3.17;;;17.60;99.90;;;;;;5023392;28;20376;-72
2021/06/03 03:10:52;;;;;;;3.10;2.15;;;17.60;99.90;;;;;;5025586;28;20022;-72
2021/06/03 03:13:18;;;;;;;4.03;2.55;;;17.50;99.90;;;;;;5023194;28;20557;-72
2021/06/03 03:15:44;;;;;;;4.03;2.75;;;17.50;99.90;;;;;;5023101;28;20026;-72
2021/06/03 03:18:10;;;;;;;5.90;2.72;;;17.40;99.90;;;;;;5021566;28;20056;-73
2021/06/03 03:20:36;;;;;;;12.90;2.75;;;17.40;99.90;;;;;;5023514;28;20034;-73
2021/06/03 03:23:04;;;;;;;9.48;3.22;;;17.40;99.90;;;;;;5023098;28;20053;-72
2021/06/03 03:25:30;;;;;;;5.55;3.05;;;17.40;99.90;;;;;;5021709;28;20037;-72
2021/06/03 03:27:56;;;;;;;3.83;2.67;;;17.40;99.90;;;;;;5023388;28;20042;-72
2021/06/03 03:30:24;;;;;;;5.45;3.05;;;17.40;99.90;;;;;;5021937;28;20025;-73
2021/06/03 03:32:49;;;;;;;5.97;3.00;;;17.40;99.90;;;;;;5023388;28;20037;-72
2021/06/03 03:35:16;;;;;;;5.35;3.20;;;17.30;99.90;;;;;;5023262;28;20025;-73
2021/06/03 03:37:43;;;;;;;6.28;3.42;;;17.30;99.90;;;;;;5023432;28;20022;-74
2021/06/03 03:40:12;;;;;;;4.78;2.95;;;17.30;99.90;;;;;;5022887;28;20192;-72
2021/06/03 03:42:38;;;;;;;4.03;2.80;;;17.30;99.90;;;;;;5021667;28;20064;-73
2021/06/03 03:45:07;;;;;;;7.80;2.97;;;17.30;99.90;;;;;;5024852;28;20030;-72
2021/06/03 03:47:32;;;;;;;3.25;2.33;;;17.30;99.90;;;;;;5023330;28;20057;-75
2021/06/03 03:49:58;;;;;;;5.35;3.00;;;17.30;99.90;;;;;;5024434;28;20029;-73
2021/06/03 03:52:24;;;;;;;4.93;2.88;;;17.30;99.90;;;;;;5024357;28;20076;-73
2021/06/03 03:54:49;;;;;;;5.32;3.05;;;17.30;99.90;;;;;;5023835;28;20030;-73
2021/06/03 03:57:15;;;;;;;6.13;2.63;;;17.30;99.90;;;;;;5024785;28;20034;-72
2021/06/03 03:59:41;;;;;;;6.45;3.45;;;17.20;99.90;;;;;;5023476;28;20046;-72
2021/06/03 04:02:07;;;;;;;7.25;3.03;;;17.20;99.90;;;;;;5024176;28;20026;-73
2021/06/03 04:04:33;;;;;;;4.30;2.90;;;17.10;99.90;;;;;;5024529;28;20394;-72
2021/06/03 04:06:58;;;;;;;3.67;2.80;;;17.20;99.90;;;;;;5023839;28;20489;-73
2021/06/03 04:09:24;;;;;;;4.40;2.42;;;17.20;99.90;;;;;;5024037;28;20037;-73
2021/06/03 04:11:50;;;;;;;5.80;2.60;;;17.20;99.90;;;;;;5023316;28;20057;-72
2021/06/03 04:14:16;;;;;;;4.65;2.88;;;17.10;99.90;;;;;;5023939;28;20026;-73
2021/06/03 04:16:42;;;;;;;6.10;3.25;;;17.10;99.90;;;;;;5024572;28;20084;-74
2021/06/03 04:19:08;;;;;;;6.40;2.90;;;17.20;99.90;;;;;;5028295;28;20126;-72
2021/06/03 04:21:34;;;;;;;6.72;3.80;;;17.20;99.90;;;;;;5026704;28;20037;-72
2021/06/03 04:24:00;;;;;;;6.10;3.00;;;17.20;99.90;;;;;;5026295;28;20127;-73
2021/06/03 04:26:25;;;;;;;8.05;2.80;;;17.10;99.90;;;;;;5026308;28;20085;-71
2021/06/03 04:28:51;;;;;;;4.43;2.63;;;17.10;99.90;;;;;;5027305;28;20096;-72
2021/06/03 04:31:17;;;;;;;16.20;3.28;;;17.20;99.90;;;;;;5027042;28;20029;-74
2021/06/03 04:33:42;;;;;;;4.65;3.22;;;17.20;99.90;;;;;;5027151;28;20026;-73
2021/06/03 04:36:08;;;;;;;4.45;2.88;;;17.20;99.90;;;;;;5026123;28;20089;-72
2021/06/03 04:38:35;;;;;;;8.90;3.03;;;17.20;99.90;;;;;;5026097;28;20037;-74
2021/06/03 04:41:00;;;;;;;3.85;2.85;;;17.20;99.90;;;;;;5026804;28;20026;-72
2021/06/03 04:43:27;;;;;;;5.40;3.15;;;17.30;99.90;;;;;;5026241;28;20030;-72
2021/06/03 04:45:52;;;;;;;7.18;3.30;;;17.30;99.90;;;;;;5025991;28;20060;-73
2021/06/03 04:48:18;;;;;;;5.05;2.72;;;17.30;99.90;;;;;;5027643;28;20124;-74
2021/06/03 04:50:45;;;;;;;6.00;2.90;;;17.30;99.90;;;;;;5027528;28;20038;-72
2021/06/03 04:53:11;;;;;;;5.95;3.08;;;17.30;99.90;;;;;;5027353;28;20030;-72
2021/06/03 04:55:37;;;;;;;8.52;3.67;;;17.30;99.90;;;;;;5026414;28;20029;-71
2021/06/03 04:58:05;;;;;;;4.45;3.08;;;17.40;99.90;;;;;;5027418;28;20034;-72
2021/06/03 05:00:33;;;;;;;5.90;3.47;;;17.50;99.90;;;;;;5018511;28;20030;-70
2021/06/03 05:02:59;;;;;;;9.40;3.45;;;17.50;99.90;;;;;;5007863;28;20066;-71
2021/06/03 05:05:26;;;;;;;7.40;3.50;;;17.50;99.90;;;;;;5018123;28;20057;-73
2021/06/03 05:07:52;;;;;;;6.45;3.17;;;17.50;99.90;;;;;;5027073;28;20048;-70
2021/06/03 05:10:18;;;;;;;4.68;2.63;;;17.60;99.90;;;;;;5027317;28;20053;-72
2021/06/03 05:12:45;;;;;;;8.23;3.58;;;17.60;99.90;;;;;;5026864;28;20029;-72
2021/06/03 05:15:13;;;;;;;4.75;3.13;;;17.50;99.90;;;;;;5019997;28;20027;-74
2021/06/03 05:17:39;;;;;;;8.07;3.35;;;17.60;99.90;;;;;;5022869;28;20034;-69
2021/06/03 05:20:07;;;;;;;5.30;3.00;;;17.70;99.90;;;;;;5007647;28;20034;-71
2021/06/03 05:22:33;;;;;;;4.95;3.13;;;17.70;99.90;;;;;;5007711;28;20038;-70
2021/06/03 05:24:59;;;;;;;6.72;3.63;;;17.70;99.90;;;;;;5007508;28;20368;-71
2021/06/03 05:27:24;;;;;;;5.22;3.33;;;17.60;99.90;;;;;;5021545;28;20045;-72
2021/06/03 05:29:50;;;;;;;15.25;4.05;;;17.80;99.90;;;;;;5006945;28;20030;-73
2021/06/03 05:32:16;;;;;;;3.67;2.78;;;17.80;99.90;;;;;;5006105;28;20026;-71
2021/06/03 05:34:41;;;;;;;6.22;3.58;;;17.80;99.90;;;;;;5006639;28;20030;-71
2021/06/03 05:37:07;;;;;;;6.43;3.28;;;17.90;99.90;;;;;;5007583;28;20037;-71
2021/06/03 05:39:33;;;;;;;6.90;3.85;;;18.00;99.90;;;;;;5023577;28;20456;-69
2021/06/03 05:41:59;;;;;;;5.10;3.17;;;18.00;99.90;;;;;;5007177;28;20040;-73
2021/06/03 05:44:24;;;;;;;4.53;2.53;;;18.00;99.90;;;;;;5022460;28;20470;-71
2021/06/03 05:46:50;;;;;;;7.70;3.30;;;18.10;99.90;;;;;;5026447;28;20038;-70
2021/06/03 05:49:16;;;;;;;7.13;3.42;;;18.10;99.90;;;;;;5012358;28;20042;-72
2021/06/03 05:51:43;;;;;;;6.63;3.28;;;18.20;99.90;;;;;;5009796;28;20057;-71
2021/06/03 05:54:10;;;;;;;8.68;4.15;;;18.30;99.90;;;;;;5015020;28;20131;-75
2021/06/03 05:56:36;;;;;;;7.53;3.38;;;18.30;99.90;;;;;;5006706;28;20030;-71
2021/06/03 05:59:02;;;;;;;6.65;3.08;;;18.40;99.90;;;;;;5004992;28;20134;-70
2021/06/03 06:01:28;;;;;;;9.98;3.90;;;18.40;99.90;;;;;;5006760;28;20022;-72
2021/06/03 06:04:12;;;;;;;4.85;2.80;;;18.50;99.90;;;;;;5006753;28;20094;-71
2021/06/03 06:06:38;;;;;;;9.50;3.58;;;18.50;99.90;;;;;;5006496;28;20023;-72
2021/06/03 06:09:06;;;;;;;4.82;2.90;;;18.50;99.90;;;;;;5006058;28;20456;-71
2021/06/03 06:11:34;;;;;;;5.88;3.25;;;18.60;99.90;;;;;;5006338;28;20022;-71
2021/06/03 06:14:01;;;;;;;5.63;3.30;;;18.60;99.90;;;;;;5006267;28;20036;-70
2021/06/03 06:16:26;;;;;;;5.75;3.33;;;18.70;99.90;;;;;;5005376;28;20026;-70
2021/06/03 06:18:52;;;;;;;5.93;2.97;;;18.70;99.90;;;;;;5006388;28;20530;-71
2021/06/03 06:21:19;;;;;;;5.32;3.20;;;18.80;99.90;;;;;;5006194;28;20052;-71
2021/06/03 06:23:47;;;;;;;6.13;3.13;;;18.90;99.90;;;;;;5006417;28;20031;-70
2021/06/03 06:26:14;;;;;;;6.35;3.33;;;18.90;99.90;;;;;;5006521;28;20030;-71
2021/06/03 06:28:40;;;;;;;5.32;2.95;;;19.00;99.90;;;;;;5006459;28;20053;-71
2021/06/03 06:31:07;;;;;;;14.38;3.97;;;19.00;99.90;;;;;;5005193;28;20022;-72
2021/06/03 06:33:34;;;;;;;5.50;3.20;;;19.10;99.90;;;;;;5005772;28;20032;-72
2021/06/03 06:36:03;;;;;;;8.23;3.78;;;19.20;99.90;;;;;;5005847;28;20026;-70
2021/06/03 06:38:28;;;;;;;6.93;2.83;;;19.30;99.90;;;;;;5005428;28;20445;-69
2021/06/03 06:40:54;;;;;;;5.15;3.15;;;19.30;99.90;;;;;;5005108;28;20026;-71
2021/06/03 06:43:20;;;;;;;5.30;3.15;;;19.40;99.90;;;;;;5005699;28;20053;-80
2021/06/03 06:45:47;;;;;;;6.03;2.60;;;19.50;99.90;;;;;;5004618;28;20102;-71
2021/06/03 06:48:15;;;;;;;5.25;3.22;;;19.50;99.90;;;;;;5005816;28;20123;-73
2021/06/03 06:50:42;;;;;;;5.40;3.22;;;19.70;99.90;;;;;;5004254;28;20395;-73
2021/06/03 06:53:09;;;;;;;3.40;2.45;;;19.70;99.90;;;;;;5005899;28;20086;-75
2021/06/03 06:55:36;;;;;;;10.07;3.10;;;19.80;99.90;;;;;;5004153;28;20026;-70
2021/06/03 06:58:02;;;;;;;11.10;2.92;;;19.90;99.90;;;;;;5005585;28;20106;-71
2021/06/03 07:00:34;;;;;;;9.10;3.72;;;20.00;99.90;;;;;;5009647;28;20360;-72
2021/06/03 07:03:00;;;;;;;7.47;3.65;;;20.10;99.90;;;;;;5011115;28;20053;-73
2021/06/03 07:05:26;;;;;;;5.13;2.75;;;20.20;99.90;;;;;;5003889;28;20026;-72
2021/06/03 07:07:52;;;;;;;8.75;3.10;;;20.30;99.90;;;;;;5005345;28;20058;-72
2021/06/03 07:10:18;;;;;;;7.32;3.42;;;20.30;99.90;;;;;;5004205;28;20042;-73
2021/06/03 07:12:44;;;;;;;10.23;3.53;;;20.40;99.90;;;;;;5005501;28;20026;-73
2021/06/03 07:15:12;;;;;;;4.10;2.55;;;20.40;99.90;;;;;;5005195;28;20026;-72
2021/06/03 07:17:38;;;;;;;19.13;3.28;;;20.40;99.90;;;;;;5004848;28;20022;-76
2021/06/03 07:20:10;;;;;;;6.72;3.45;;;20.50;99.90;;;;;;5005301;28;20032;-74
2021/06/03 07:22:40;;;;;;;5.93;3.25;;;20.50;99.90;;;;;;5004111;28;20038;-70
2021/06/03 07:25:07;;;;;;;6.90;3.15;;;20.40;99.90;;;;;;5005010;28;20018;-72
2021/06/03 07:27:37;;;;;;;5.45;3.28;;;20.40;99.90;;;;;;5005540;28;20041;-77
2021/06/03 07:30:08;;;;;;;4.60;2.95;;;20.40;99.90;;;;;;5004398;28;20042;-70
2021/06/03 07:32:34;;;;;;;16.05;2.97;;;20.30;99.90;;;;;;5004617;28;20026;-70
2021/06/03 07:35:00;;;;;;;5.63;3.63;;;20.30;99.90;;;;;;5005350;28;20520;-74
2021/06/03 07:37:27;;;;;;;4.40;3.22;;;20.20;99.90;;;;;;5003804;28;20121;-71
2021/06/03 07:39:52;;;;;;;6.43;3.53;;;20.20;99.90;;;;;;5003801;28;20058;-73
2021/06/03 07:42:18;;;;;;;5.60;2.97;;;20.10;99.90;;;;;;5004975;28;20034;-70
2021/06/03 07:44:46;;;;;;;7.18;3.80;;;20.10;99.90;;;;;;5005136;28;20027;-76
2021/06/03 07:47:12;;;;;;;8.32;3.35;;;20.10;99.90;;;;;;5003105;28;20042;-74
2021/06/03 07:49:38;;;;;;;6.15;3.15;;;20.10;99.90;;;;;;5004993;28;20058;-73
2021/06/03 07:52:05;;;;;;;6.63;2.80;;;20.10;99.90;;;;;;5004435;28;20037;-72
2021/06/03 07:54:30;;;;;;;4.28;2.75;;;20.00;99.90;;;;;;5003198;28;20026;-71
2021/06/03 07:56:57;;;;;;;5.45;3.42;;;20.00;99.90;;;;;;5003553;28;20022;-72
2021/06/03 07:59:23;;;;;;;6.60;3.03;;;19.90;99.90;;;;;;5002802;28;20038;-73
2021/06/03 08:01:49;;;;;;;5.75;2.92;;;19.90;99.90;;;;;;5003411;28;20037;-74
2021/06/03 08:04:15;;;;;;;5.57;3.10;;;19.90;99.90;;;;;;5015041;28;20033;-72
2021/06/03 08:06:42;;;;;;;5.28;2.53;;;19.90;99.90;;;;;;5030350;28;20041;-73
2021/06/03 08:09:08;;;;;;;3.85;2.50;;;19.90;99.90;;;;;;5019551;28;20038;-72
2021/06/03 08:11:34;;;;;;;6.80;3.40;;;19.90;99.90;;;;;;5028715;28;20044;-75
2021/06/03 08:13:59;;;;;;;12.27;3.58;;;19.90;99.90;;;;;;5039732;28;20037;-71
2021/06/03 08:16:25;;;;;;;3.50;2.75;;;19.90;99.90;;;;;;5041841;28;20029;-73
2021/06/03 08:18:51;;;;;;;11.25;3.13;;;19.90;99.90;;;;;;5043073;28;20025;-75
2021/06/03 08:21:17;;;;;;;3.92;2.40;;;20.00;99.90;;;;;;5044012;28;20101;-76
2021/06/03 08:23:43;;;;;;;5.38;3.00;;;20.00;99.90;;;;;;5044210;28;20457;-74
2021/06/03 08:26:08;;;;;;;8.68;3.13;;;20.00;99.90;;;;;;5043928;28;20025;-75
2021/06/03 08:28:34;;;;;;;20.75;3.67;;;20.10;99.90;;;;;;5042182;28;20113;-74
2021/06/03 08:31:00;;;;;;;6.13;3.15;;;20.10;99.90;;;;;;5042234;28;20034;-74
2021/06/03 08:33:27;;;;;;;4.47;2.83;;;20.20;99.90;;;;;;5024162;28;20086;-73
2021/06/03 08:35:53;;;;;;;7.38;3.33;;;20.20;99.90;;;;;;5021416;28;20089;-73
2021/06/03 08:38:20;;;;;;;7.60;3.60;;;20.20;99.90;;;;;;5020831;28;20037;-75
2021/06/03 08:40:56;;;;;;;3.53;2.65;;;20.30;99.90;;;;;;5022369;28;20145;-74
2021/06/03 08:43:24;;;;;;;7.35;2.75;;;20.40;99.90;;;;;;5022632;28;20041;-72
2021/06/03 08:45:49;;;;;;;5.38;3.20;;;20.40;99.90;;;;;;5023789;28;20049;-74
2021/06/03 08:48:16;;;;;;;7.28;3.67;;;20.50;99.90;;;;;;5028401;28;20049;-75
2021/06/03 08:50:46;;;;;;;4.35;3.10;;;20.60;99.90;;;;;;5029186;28;20038;-72
2021/06/03 08:53:12;;;;;;;5.68;3.40;;;20.60;99.90;;;;;;5037905;28;20049;-72
2021/06/03 08:58:25;;;;;;;5.72;3.15;;;20.70;99.90;;;;;;5035029;28;20469;-73
2021/06/03 09:00:51;;;;;;;7.65;3.85;;;20.70;99.90;;;;;;5042091;28;20040;-72
2021/06/03 09:03:17;;;;;;;5.57;3.30;;;20.70;99.90;;;;;;5043462;28;20032;-73
2021/06/03 09:05:44;;;;;;;20.40;3.53;;;20.70;99.90;;;;;;5029709;28;20044;-73
2021/06/03 09:08:20;;;;;;;5.55;3.28;;;20.60;99.90;;;;;;5027256;28;20033;-71
2021/06/03 09:10:49;;;;;;;6.07;3.08;;;20.40;99.90;;;;;;5025305;28;20030;-72
2021/06/03 09:13:16;;;;;;;6.80;3.38;;;20.40;99.90;;;;;;5032746;28;20025;-71
2021/06/03 09:15:48;;;;;;;5.22;3.42;;;20.30;99.90;;;;;;5042882;28;20466;-73
2021/06/03 09:18:15;;;;;;;9.75;3.03;;;20.30;99.90;;;;;;5028905;28;20489;-74
2021/06/03 09:20:44;;;;;;;7.95;3.40;;;20.30;99.90;;;;;;5026692;28;20026;-73
2021/06/03 09:23:44;;;;;;;6.30;3.30;;;20.20;99.90;;;;;;5025283;28;20121;-74
2021/06/03 09:26:14;;;;;;;6.22;3.65;;;20.20;99.90;;;;;;4997128;28;20050;-73
2021/06/03 09:28:45;;;;;;;7.03;3.63;;;20.10;99.90;;;;;;5034797;28;20124;-72
2021/06/03 09:31:18;;;;;;;6.20;3.38;;;20.10;99.90;;;;;;5038225;28;20496;-73
2021/06/03 09:33:57;;;;;;;6.93;3.55;;;20.10;99.90;;;;;;5043254;28;20022;-72
2021/06/03 09:36:42;;;;;;;6.75;3.50;;;20.10;99.90;;;;;;5038313;28;20040;-72
2021/06/03 09:39:17;;;;;;;5.65;3.30;;;20.00;99.90;;;;;;5031968;28;20103;-71
2021/06/03 09:42:08;;;;;;;6.78;3.33;;;20.00;99.90;;;;;;5047294;28;20053;-72
2021/06/03 09:44:38;;;;;;;9.95;3.78;;;20.00;99.90;;;;;;5045574;28;20093;-72
2021/06/03 09:47:10;;;;;;;18.92;3.42;;;20.00;99.90;;;;;;5045117;28;20112;-73
2021/06/03 09:49:43;;;;;;;8.25;3.38;;;20.00;99.90;;;;;;5043783;28;20033;-72
2021/06/03 09:52:15;;;;;;;5.97;3.28;;;20.00;99.90;;;;;;5038950;28;20029;-73
2021/06/03 09:54:55;;;;;;;11.93;4.32;;;20.00;99.90;;;;;;5029374;28;20034;-72
2021/06/03 09:57:27;;;;;;;6.10;3.15;;;20.10;99.90;;;;;;5026347;28;20026;-71
2021/06/03 10:00:04;;;;;;;6.53;3.78;;;20.00;99.90;;;;;;5025979;28;20021;-73
2021/06/03 10:02:32;;;;;;;5.93;3.45;;;20.10;99.90;;;;;;5026553;28;20028;-70
2021/06/03 10:04:57;;;;;;;4.53;3.10;;;20.00;99.90;;;;;;5026377;28;20092;-72
2021/06/03 10:07:27;;;;;;;5.90;3.28;;;20.10;99.90;;;;;;5025648;28;20447;-72
2021/06/03 10:10:05;;;;;;;6.82;3.60;;;20.00;99.90;;;;;;5025744;28;20037;-72
2021/06/03 10:12:36;;;;;;;8.25;3.75;;;20.10;99.90;;;;;;5026385;28;20026;-73
2021/06/03 10:15:07;;;;;;;3.80;2.85;;;20.00;99.90;;;;;;5024017;28;20041;-73
2021/06/03 10:17:35;;;;;;;5.80;3.55;;;20.10;99.90;;;;;;5025805;28;20026;-73
2021/06/03 10:20:07;;;;;;;6.18;3.38;;;20.10;99.90;;;;;;5025688;28;20120;-71
2021/06/03 10:22:35;;;;;;;8.02;3.80;;;20.00;99.90;;;;;;5025910;28;20538;-72
2021/06/03 10:25:11;;;;;;;4.35;3.17;;;20.10;99.90;;;;;;5025815;28;20414;-73
2021/06/03 10:27:52;;;;;;;5.10;2.80;;;20.10;99.90;;;;;;5025807;28;20038;-72
2021/06/03 10:30:21;;;;;;;5.35;3.13;;;20.10;99.90;;;;;;5025377;28;20108;-72
2021/06/03 10:32:49;;;;;;;3.97;3.00;;;20.10;99.90;;;;;;5025850;28;20021;-73
2021/06/03 10:35:22;;;;;;;5.78;3.08;;;20.10;99.90;;;;;;5025301;28;20109;-72
2021/06/03 10:37:48;;;;;;;7.07;3.28;;;20.20;99.90;;;;;;5030879;28;20457;-71
2021/06/03 10:40:20;;;;;;;7.68;3.13;;;20.10;99.90;;;;;;5031287;28;20142;-70
2021/06/03 10:42:46;;;;;;;9.48;3.60;;;20.20;99.90;;;;;;5025005;28;20042;-72
2021/06/03 10:45:16;;;;;;;8.52;3.90;;;20.20;99.90;;;;;;5025621;28;20033;-75
2021/06/03 10:47:43;;;;;;;4.00;2.67;;;20.20;99.90;;;;;;5025152;28;20470;-71
2021/06/03 10:50:14;;;;;;;5.70;3.67;;;20.20;99.90;;;;;;5025413;28;20068;-72
2021/06/03 10:52:40;;;;;;;7.90;4.05;;;20.20;99.90;;;;;;5025580;28;20050;-70
2021/06/03 10:55:07;;;;;;;6.60;3.85;;;20.20;99.90;;;;;;5023576;28;20041;-71
2021/06/03 10:57:52;;;;;;;7.05;3.60;;;20.30;99.90;;;;;;5023993;28;20061;-72
2021/06/03 11:00:25;;;;;;;4.07;3.17;;;20.30;99.90;;;;;;5025471;28;20052;-71
2021/06/03 11:02:54;;;;;;;8.23;3.58;;;20.30;99.90;;;;;;5024825;28;20057;-71
2021/06/03 11:05:30;;;;;;;3.75;3.00;;;20.30;99.90;;;;;;5023412;28;20243;-71
2021/06/03 11:08:08;;;;;;;4.13;3.00;;;20.30;99.90;;;;;;5024880;28;20056;-71
2021/06/03 11:10:33;;;;;;;7.43;3.20;;;20.30;99.90;;;;;;5023206;28;20038;-70
2021/06/03 11:13:15;;;;;;;5.63;3.88;;;20.30;99.90;;;;;;5025300;28;20044;-71
2021/06/03 11:16:03;;;;;;;7.05;3.83;;;20.40;99.90;;;;;;5024956;28;20057;-71
2021/06/03 11:18:48;;;;;;;7.30;4.00;;;20.40;99.90;;;;;;5024520;28;20053;-71
2021/06/03 11:21:35;;;;;;;6.10;3.58;;;20.40;99.90;;;;;;5023970;28;20026;-72
2021/06/03 11:24:05;;;;;;;5.40;3.40;;;20.50;99.90;;;;;;5024902;28;20030;-71
2021/06/03 11:26:36;;;;;;;8.35;4.13;;;20.60;99.90;;;;;;5022489;28;20030;-72
2021/06/03 11:29:25;;;;;;;9.85;4.15;;;20.70;99.90;;;;;;5024877;28;20045;-70
2021/06/03 11:31:52;;;;;;;4.53;3.40;;;20.70;99.90;;;;;;5028702;28;20058;-72
2021/06/03 11:34:23;;;;;;;7.80;4.13;;;20.80;99.90;;;;;;5038423;28;20080;-71
2021/06/03 11:37:03;;;;;;;9.60;3.97;;;20.90;99.90;;;;;;5024437;28;20065;-72
2021/06/03 11:39:33;;;;;;;7.40;3.53;;;21.00;99.90;;;;;;5023562;28;20054;-72
2021/06/03 11:42:19;;;;;;;6.72;3.53;;;21.10;99.90;;;;;;5024850;28;20033;-72
2021/06/03 11:45:03;;;;;;;5.25;3.35;;;21.30;99.90;;;;;;5024901;28;20093;-73
2021/06/03 11:47:52;;;;;;;8.23;3.75;;;21.40;99.90;;;;;;5024802;28;20037;-72
2021/06/03 11:50:18;;;;;;;4.97;3.67;;;21.60;99.90;;;;;;5015848;28;20050;-72
2021/06/03 11:52:53;;;;;;;7.43;3.83;;;21.70;99.90;;;;;;5024975;28;20029;-74
2021/06/03 11:55:36;;;;;;;7.38;4.25;;;21.90;99.90;;;;;;5024826;28;20040;-72
2021/06/03 11:58:25;;;;;;;7.43;3.92;;;22.00;99.90;;;;;;5023224;28;20034;-71
2021/06/03 12:00:56;;;;;;;8.82;4.07;;;22.10;99.90;;;;;;5023742;28;20062;-73
2021/06/03 12:03:40;;;;;;;4.57;2.90;;;22.20;99.90;;;;;;5024535;28;20033;-72
2021/06/03 12:06:24;;;;;;;8.00;4.50;;;22.40;99.90;;;;;;5024554;28;20037;-70
2021/06/03 12:08:55;;;;;;;4.77;3.53;;;22.60;99.90;;;;;;5024099;28;20042;-72
2021/06/03 12:11:33;;;;;;;6.05;3.70;;;22.70;99.90;;;;;;5024211;28;20076;-72
2021/06/03 12:14:09;;;;;;;7.75;4.10;;;23.00;99.90;;;;;;5023725;28;20053;-72
2021/06/03 12:16:37;;;;;;;6.03;3.50;;;23.20;99.90;;;;;;5024514;28;20094;-71
2021/06/03 12:19:08;;;;;;;10.88;4.68;;;23.30;99.90;;;;;;5024240;28;20036;-71
2021/06/03 12:21:34;;;;;;;6.50;3.67;;;23.30;99.90;;;;;;5024071;28;20540;-70
2021/06/03 12:24:00;;;;;;;7.13;3.75;;;23.40;99.90;;;;;;5024355;28;20034;-71
2021/06/03 12:26:25;;;;;;;7.13;3.78;;;23.50;99.90;;;;;;5023521;28;20351;-71
2021/06/03 12:28:52;;;;;;;6.40;3.65;;;23.60;99.90;;;;;;5023427;28;20036;-70
2021/06/03 12:31:27;;;;;;;4.72;3.25;;;23.70;99.90;;;;;;5024101;28;20417;-72
2021/06/03 12:33:54;;;;;;;8.05;2.90;;;23.80;99.90;;;;;;5022684;28;20053;-72
2021/06/03 12:36:22;;;;;;;6.13;3.80;;;23.90;99.90;;;;;;5014974;28;20038;-71
2021/06/03 12:38:49;;;;;;;5.75;2.88;;;23.90;99.90;;;;;;5005482;28;20157;-71
2021/06/03 12:41:37;;;;;;;8.02;3.90;;;24.00;99.90;;;;;;5006340;28;20030;-72
2021/06/03 12:44:16;;;;;;;6.05;3.97;;;24.00;99.90;;;;;;5008229;28;20022;-70
2021/06/03 12:46:45;;;;;;;6.72;3.40;;;24.10;99.90;;;;;;5008473;28;20034;-73
2021/06/03 12:49:14;;;;;;;4.50;3.10;;;24.10;99.90;;;;;;5007501;28;20038;-72
2021/06/03 12:52:09;;;;;;;4.72;3.05;;;24.10;99.90;;;;;;5008397;28;20033;-72
2021/06/03 12:54:44;;;;;;;4.20;3.10;;;24.10;99.90;;;;;;5004856;28;20049;-72
2021/06/03 12:57:15;;;;;;;5.85;3.70;;;24.20;99.90;;;;;;5007436;28;20054;-71